Time;durP1;ratioP1;P1;durP2;ratioP2;P2;SDS_P1;SDS_P2;PMS_P1;PMS_P2;Temp;Humidity;BMP_temperature;BMP_pressure;BME280_temperature;BME280_humidity;BME280_pressure;Samples;Min_cycle;Max_cycle;Signal;HPM_P1;HPM_P2
2021/10/02 00:41:48;;;;;;;29.65;20.60;;;;;;;6.95;76.34;101870.37;1654398;86;21112;-78
2021/10/02 00:46:49;;;;;;;31.33;20.82;;;;;;;6.91;76.44;101866.19;1639235;87;21264;-79
2021/10/02 00:49:16;;;;;;;29.00;21.00;;;;;;;6.88;76.52;101860.36;1656315;86;21956;-78
2021/10/02 00:51:43;;;;;;;26.37;18.87;;;;;;;6.84;76.56;101857.07;1656272;86;22602;-79
2021/10/02 00:54:09;;;;;;;30.50;22.00;;;;;;;6.84;76.67;101855.77;1656092;86;21121;-78
2021/10/02 00:56:36;;;;;;;29.92;20.95;;;;;;;6.82;76.63;101853.47;1656320;86;21054;-78
2021/10/02 00:59:03;;;;;;;37.25;21.00;;;;;;;6.78;76.67;101848.45;1656324;86;21083;-79
2021/10/02 01:01:43;;;;;;;30.60;22.15;;;;;;;6.75;76.73;101844.34;1639609;87;21077;-78
2021/10/02 01:04:42;;;;;;;28.40;20.77;;;;;;;6.73;76.76;101840.73;1639373;86;22592;-78
2021/10/02 01:07:24;;;;;;;30.95;20.37;;;;;;;6.71;76.86;101844.98;1656272;86;21075;-77
2021/10/02 01:10:10;;;;;;;31.07;21.37;;;;;;;6.70;76.95;101844.50;1639520;87;21104;-76
2021/10/02 01:13:15;;;;;;;32.40;21.37;;;;;;;6.69;77.03;101844.41;1640146;85;21121;-77
2021/10/02 01:15:48;;;;;;;29.57;20.32;;;;;;;6.67;77.13;101841.70;1656086;86;21066;-76
2021/10/02 01:18:28;;;;;;;32.50;21.60;;;;;;;6.64;77.16;101838.89;1656469;86;21776;-77
2021/10/02 01:21:21;;;;;;;29.87;20.48;;;;;;;6.62;77.18;101833.98;1655898;86;21066;-77
2021/10/02 01:23:56;;;;;;;30.30;21.05;;;;;;;6.59;77.17;101833.83;1656264;86;21539;-77
2021/10/02 01:27:03;;;;;;;31.02;21.30;;;;;;;6.56;77.24;101831.02;1656426;86;21050;-77
2021/10/02 01:29:30;;;;;;;28.10;20.08;;;;;;;6.54;77.26;101823.07;1656437;86;21039;-77
2021/10/02 01:34:37;;;;;;;27.93;20.27;;;;;;;6.48;77.34;101816.19;1655967;86;21082;-76
2021/10/02 01:37:30;;;;;;;31.35;20.75;;;;;;;6.46;77.39;101816.50;1657134;85;21118;-76
2021/10/02 01:48:15;;;;;;;32.95;22.07;;;;;;;6.40;77.63;101808.27;1629843;86;21164;-76
2021/10/02 01:50:43;;;;;;;36.98;22.75;;;;;;;6.38;77.75;101805.59;1630338;86;21110;-75
2021/10/02 01:53:10;;;;;;;29.25;22.27;;;;;;;6.42;77.93;101801.45;1630164;87;21375;-77
2021/10/02 01:55:37;;;;;;;36.00;21.90;;;;;;;6.40;77.95;101800.05;1630282;88;21097;-77
2021/10/02 01:58:07;;;;;;;37.20;24.10;;;;;;;6.40;78.07;101801.35;1630131;87;21724;-77
2021/10/02 02:00:41;;;;;;;30.35;21.73;;;;;;;6.43;78.17;101795.39;1630201;87;21455;-77
2021/10/02 02:03:09;;;;;;;29.12;22.82;;;;;;;6.43;78.20;101794.97;1629389;88;21125;-76
2021/10/02 02:05:35;;;;;;;32.95;23.00;;;;;;;6.42;78.25;101795.80;1630163;88;21153;-76
2021/10/02 02:08:05;;;;;;;37.55;23.92;;;;;;;6.43;78.22;101794.08;1630078;86;21130;-78
2021/10/02 02:10:31;;;;;;;28.45;22.25;;;;;;;6.42;78.21;101791.88;1630154;86;22011;-79
2021/10/02 02:13:03;;;;;;;32.35;22.55;;;;;;;6.40;78.19;101800.05;1629937;87;21070;-78
2021/10/02 02:15:29;;;;;;;30.90;21.70;;;;;;;6.39;78.23;101798.22;1630234;85;21161;-79
2021/10/02 02:18:02;;;;;;;35.00;23.55;;;;;;;6.37;78.26;101798.55;1630025;86;21179;-78
2021/10/02 02:20:34;;;;;;;36.27;23.70;;;;;;;6.37;78.33;101789.39;1630271;87;21093;-78
2021/10/02 02:23:01;;;;;;;35.00;22.87;;;;;;;6.37;78.37;101785.88;1630267;87;21970;-78
2021/10/02 02:25:28;;;;;;;34.20;22.35;;;;;;;6.34;78.32;101785.28;1630102;88;21145;-80
2021/10/02 02:27:56;;;;;;;31.17;21.90;;;;;;;6.32;78.35;101784.70;1629521;87;21088;-78
2021/10/02 02:30:23;;;;;;;29.72;21.65;;;;;;;6.32;78.37;101786.02;1629977;88;21115;-81
2021/10/02 02:32:52;;;;;;;28.83;21.75;;;;;;;6.31;78.40;101782.50;1629921;86;21121;-80
2021/10/02 02:35:20;;;;;;;28.80;21.60;;;;;;;6.31;78.42;101782.50;1630145;86;21953;-78
2021/10/02 02:37:47;;;;;;;29.70;21.07;;;;;;;6.31;78.47;101771.16;1630234;86;21157;-78
2021/10/02 02:40:13;;;;;;;30.57;21.45;;;;;;;6.31;78.53;101778.58;1630158;87;21117;-78
2021/10/02 02:42:40;;;;;;;26.57;19.82;;;;;;;6.30;78.47;101774.15;1629958;86;21173;-77
2021/10/02 02:45:07;;;;;;;28.30;21.68;;;;;;;6.30;78.46;101768.92;1609782;87;21128;-78
2021/10/02 02:47:38;;;;;;;30.00;22.95;;;;;;;6.28;78.45;101765.73;1630049;87;22544;-77
2021/10/02 02:50:11;;;;;;;29.50;20.48;;;;;;;6.25;78.47;101757.31;1626171;86;21074;-78
2021/10/02 02:53:01;;;;;;;28.98;21.82;;;;;;;6.22;78.30;101758.43;1636939;86;21280;-78
2021/10/02 02:55:32;;;;;;;30.48;20.23;;;;;;;6.19;78.44;101758.23;1614407;87;21940;-78
2021/10/02 02:58:03;;;;;;;29.48;21.75;;;;;;;6.17;78.51;101748.09;1614015;87;21046;-79
2021/10/02 03:00:31;;;;;;;30.82;20.88;;;;;;;6.17;78.49;101745.48;1614059;87;21930;-78
2021/10/02 03:03:05;;;;;;;28.27;22.15;;;;;;;6.15;78.68;101741.88;1614141;88;21549;-78
2021/10/02 03:05:31;;;;;;;30.55;21.80;;;;;;;6.16;78.83;101745.90;1614350;87;21552;-79
2021/10/02 03:08:13;;;;;;;29.25;21.80;;;;;;;6.18;78.81;101742.08;1614262;87;21074;-79
2021/10/02 03:10:41;;;;;;;30.75;23.95;;;;;;;6.17;78.80;101734.61;1614248;88;21063;-79
2021/10/02 03:13:16;;;;;;;31.45;21.77;;;;;;;6.16;78.83;101732.83;1614072;87;21662;-79
2021/10/02 03:15:43;;;;;;;26.07;21.27;;;;;;;6.18;78.84;101734.23;1614117;87;21054;-79
2021/10/02 03:18:11;;;;;;;29.90;20.92;;;;;;;6.15;78.84;101732.31;1614177;87;21082;-79
2021/10/02 03:20:38;;;;;;;27.93;20.97;;;;;;;6.15;78.94;101732.31;1614351;88;21113;-79
2021/10/02 03:23:04;;;;;;;28.73;21.30;;;;;;;6.15;78.98;101729.70;1614258;87;21082;-79
2021/10/02 03:25:32;;;;;;;28.55;21.77;;;;;;;6.16;78.93;101728.91;1614187;87;21764;-79
2021/10/02 03:28:00;;;;;;;29.75;22.35;;;;;;;6.14;78.98;101724.41;1613906;87;21114;-79
2021/10/02 03:30:29;;;;;;;29.90;21.17;;;;;;;6.14;79.18;101730.53;1614107;87;21086;-79
2021/10/02 03:32:56;;;;;;;27.77;21.05;;;;;;;6.14;79.12;101729.64;1613852;87;21067;-79
2021/10/02 03:35:23;;;;;;;27.15;20.85;;;;;;;6.12;79.13;101725.63;1614096;87;21105;-79
2021/10/02 03:37:49;;;;;;;26.50;20.50;;;;;;;6.13;79.26;101723.48;1614055;87;21810;-79
2021/10/02 03:40:20;;;;;;;33.42;21.37;;;;;;;6.13;79.18;101724.80;1630064;86;21101;-78
2021/10/02 03:42:53;;;;;;;29.48;21.87;;;;;;;6.10;79.19;101721.09;1602601;87;21718;-78
2021/10/02 03:45:21;;;;;;;31.45;23.52;;;;;;;6.10;79.21;101715.87;1662811;85;21594;-81
2021/10/02 03:47:47;;;;;;;31.42;24.18;;;;;;;6.09;79.13;101719.31;1630667;88;21216;-80
2021/10/02 03:50:14;;;;;;;37.25;27.42;;;;;;;6.07;79.21;101716.60;1662899;84;22385;-78
2021/10/02 03:52:41;;;;;;;38.67;29.30;;;;;;;6.07;79.18;101711.37;1629960;86;21093;-79
2021/10/02 03:55:10;;;;;;;41.18;29.90;;;;;;;6.06;79.22;101712.17;1662816;85;21080;-79
2021/10/02 03:57:37;;;;;;;38.15;28.45;;;;;;;6.05;79.18;101718.64;1630344;87;21165;-78
2021/10/02 04:00:05;;;;;;;38.98;27.98;;;;;;;6.02;79.11;101711.50;1662462;84;21116;-78
2021/10/02 04:02:32;;;;;;;33.48;25.77;;;;;;;5.98;79.12;101696.45;1625254;86;21825;-79
2021/10/02 04:04:58;;;;;;;32.60;25.02;;;;;;;5.98;79.08;101693.84;1620067;88;21672;-78
2021/10/02 04:07:25;;;;;;;32.78;25.37;;;;;;;5.93;78.99;101690.94;1652272;86;21117;-79
2021/10/02 04:09:52;;;;;;;45.92;30.08;;;;;;;5.91;79.06;101687.34;1620186;88;21123;-77
2021/10/02 04:12:19;;;;;;;39.20;27.82;;;;;;;5.90;79.10;101680.30;1620034;88;21695;-77
2021/10/02 04:14:47;;;;;;;42.10;29.45;;;;;;;5.89;79.14;101685.42;1620021;88;21902;-77
2021/10/02 04:17:14;;;;;;;39.45;26.77;;;;;;;5.87;79.27;101687.95;1652029;86;21133;-81
2021/10/02 04:19:43;;;;;;;33.60;24.50;;;;;;;5.88;79.29;101679.31;1601283;88;22278;-76
2021/10/02 04:22:10;;;;;;;31.05;23.80;;;;;;;5.89;79.36;101679.78;1619749;88;21217;-76
2021/10/02 04:24:37;;;;;;;30.92;22.70;;;;;;;5.88;79.36;101679.73;1651919;86;21097;-76
2021/10/02 04:27:04;;;;;;;28.73;21.85;;;;;;;5.87;79.35;101681.83;1619911;88;21766;-76
2021/10/02 04:29:33;;;;;;;28.73;21.87;;;;;;;5.85;79.35;101671.28;1630834;86;21387;-76
2021/10/02 04:31:59;;;;;;;30.72;22.55;;;;;;;5.85;79.40;101669.97;1620175;88;21122;-76
2021/10/02 04:34:26;;;;;;;31.42;23.38;;;;;;;5.85;79.45;101672.59;1620286;88;21126;-78
2021/10/02 04:36:53;;;;;;;28.23;21.82;;;;;;;5.85;79.42;101665.64;1652478;86;21096;-78
2021/10/02 04:39:19;;;;;;;31.05;20.97;;;;;;;5.85;79.45;101665.64;1620309;88;21632;-79
2021/10/02 04:41:46;;;;;;;30.75;22.13;;;;;;;5.85;79.35;101663.44;1620072;86;21186;-78
2021/10/02 04:44:13;;;;;;;29.90;21.75;;;;;;;5.83;79.38;101662.04;1689519;83;21100;-80
2021/10/02 04:46:40;;;;;;;27.70;21.02;;;;;;;5.84;79.38;101655.13;1690962;84;21138;-81
2021/10/02 04:49:09;;;;;;;28.25;22.37;;;;;;;5.84;79.42;101653.41;1690741;83;21658;-81
2021/10/02 04:51:36;;;;;;;25.68;20.82;;;;;;;5.85;79.50;101647.77;1691020;84;21801;-80
2021/10/02 04:54:02;;;;;;;28.12;20.45;;;;;;;5.87;79.42;101650.06;1690359;84;21068;-80
2021/10/02 04:56:31;;;;;;;29.70;20.68;;;;;;;5.88;79.39;101646.65;1690840;84;21594;-81
2021/10/02 04:58:58;;;;;;;30.20;20.40;;;;;;;5.88;79.38;101649.27;1663587;84;21495;-79
2021/10/02 05:01:25;;;;;;;29.52;22.15;;;;;;;5.89;79.42;101647.13;1690780;83;21531;-78
2021/10/02 05:03:53;;;;;;;29.20;22.13;;;;;;;5.92;79.48;101639.89;1690889;83;21755;-81
2021/10/02 05:06:27;;;;;;;26.52;21.90;;;;;;;5.95;79.45;101643.97;1640013;84;21128;-82
2021/10/02 05:08:52;;;;;;;28.97;21.47;;;;;;;6.00;79.52;101639.95;1631393;85;21098;-79
2021/10/02 05:11:19;;;;;;;30.82;21.87;;;;;;;6.05;79.49;101637.63;1631336;87;21097;-80
2021/10/02 05:13:46;;;;;;;28.52;21.07;;;;;;;6.14;79.67;101632.92;1631302;87;21043;-81
2021/10/02 05:16:13;;;;;;;27.55;21.42;;;;;;;6.26;79.75;101641.86;1666711;85;21811;-79
2021/10/02 05:18:40;;;;;;;78.85;27.35;;;;;;;6.38;79.73;101647.77;1631113;87;21140;-80
2021/10/02 05:21:07;;;;;;;82.10;24.72;;;;;;;6.51;79.76;101637.59;1630979;87;21038;-80
2021/10/02 05:23:34;;;;;;;59.15;24.43;;;;;;;6.67;79.74;101644.17;1631007;87;21074;-80
2021/10/02 05:26:00;;;;;;;42.75;23.62;;;;;;;6.77;79.56;101641.22;1630878;87;21062;-82
2021/10/02 05:28:27;;;;;;;47.60;23.25;;;;;;;6.90;79.63;101637.56;1630900;86;21936;-80
2021/10/02 05:30:54;;;;;;;47.53;22.90;;;;;;;7.05;79.50;101638.80;1631025;87;21135;-80
2021/10/02 05:33:21;;;;;;;46.68;23.95;;;;;;;7.15;79.32;101638.48;1631115;87;21074;-80
2021/10/02 05:35:48;;;;;;;42.53;23.77;;;;;;;7.26;79.23;101638.14;1631122;87;21102;-81
2021/10/02 05:38:20;;;;;;;39.88;23.38;;;;;;;7.34;79.19;101631.19;1631185;86;21121;-81
2021/10/02 05:40:44;;;;;;;39.85;23.02;;;;;;;7.49;79.30;101628.84;1631695;85;22687;-81
2021/10/02 05:43:10;;;;;;;36.50;23.85;;;;;;;7.64;79.22;101632.67;1602100;86;21097;-80
2021/10/02 05:45:38;;;;;;;29.82;22.10;;;;;;;7.78;79.22;101632.97;1586938;89;21042;-81
2021/10/02 05:48:05;;;;;;;33.92;23.25;;;;;;;7.91;79.23;101622.69;1587050;89;21101;-80
2021/10/02 05:50:31;;;;;;;33.18;24.32;;;;;;;8.02;79.12;101621.50;1587281;90;21121;-80
2021/10/02 05:52:58;;;;;;;33.10;24.92;;;;;;;8.12;79.04;101622.42;1587185;89;22484;-81
2021/10/02 05:55:31;;;;;;;33.38;24.12;;;;;;;8.21;79.05;101628.54;1587106;89;21081;-80
2021/10/02 05:57:56;;;;;;;34.55;24.45;;;;;;;8.32;78.90;101629.95;1616456;87;21117;-79
2021/10/02 06:00:24;;;;;;;35.68;25.52;;;;;;;8.39;78.82;101632.48;1587051;89;21030;-79
2021/10/02 06:02:51;;;;;;;36.08;25.40;;;;;;;8.45;78.70;101639.36;1587217;89;21116;-80
2021/10/02 06:05:18;;;;;;;36.83;25.77;;;;;;;8.51;78.64;101638.75;1616888;88;22058;-79
2021/10/02 06:07:45;;;;;;;40.83;25.52;;;;;;;8.59;78.64;101637.80;1587333;88;21380;-80
2021/10/02 06:10:12;;;;;;;32.63;25.00;;;;;;;8.68;78.59;101633.87;1587046;89;21111;-80
2021/10/02 06:12:38;;;;;;;35.48;26.23;;;;;;;8.78;78.62;101636.50;1587267;89;21090;-80
2021/10/02 06:15:07;;;;;;;39.73;26.60;;;;;;;8.95;78.90;101632.95;1587171;90;21602;-79
2021/10/02 06:17:33;;;;;;;46.00;32.88;;;;;;;9.08;78.58;101637.44;1587393;89;21772;-80
2021/10/02 06:20:00;;;;;;;50.48;33.78;;;;;;;9.17;78.47;101636.53;1587218;89;21611;-80
2021/10/02 06:22:27;;;;;;;69.30;43.55;;;;;;;9.28;78.43;101640.54;1586943;89;21083;-80
2021/10/02 06:24:53;;;;;;;60.58;41.13;;;;;;;9.40;78.22;101641.91;1587328;89;21326;-80
2021/10/02 06:27:20;;;;;;;55.15;36.65;;;;;;;9.49;78.16;101641.00;1587415;89;21085;-82
2021/10/02 06:29:47;;;;;;;54.40;33.50;;;;;;;9.56;77.81;101645.70;1587505;90;21782;-83
2021/10/02 06:32:21;;;;;;;39.03;26.68;;;;;;;9.63;77.89;101644.22;1593744;89;21632;-86
2021/10/02 06:34:46;;;;;;;35.58;24.92;;;;;;;9.71;77.67;101641.09;1639150;86;21533;-82
2021/10/02 06:37:13;;;;;;;31.57;23.75;;;;;;;9.77;77.54;101636.52;1639046;87;21064;-83
2021/10/02 06:39:40;;;;;;;28.98;23.32;;;;;;;9.85;77.41;101634.20;1639447;86;21581;-83
2021/10/02 06:42:06;;;;;;;34.85;23.18;;;;;;;9.82;76.96;101645.51;1609852;85;21772;-84
2021/10/02 06:44:33;;;;;;;35.90;23.92;;;;;;;9.79;76.98;101645.37;1680941;84;21022;-81
2021/10/02 06:47:00;;;;;;;36.17;23.87;;;;;;;9.78;77.00;101642.27;1647940;86;21115;-81
2021/10/02 06:49:28;;;;;;;34.08;23.87;;;;;;;9.79;76.99;101640.53;1681287;85;21057;-82
2021/10/02 06:51:55;;;;;;;31.48;23.30;;;;;;;9.79;76.99;101640.11;1648142;86;21151;-81
2021/10/02 06:54:22;;;;;;;35.10;24.00;;;;;;;9.81;76.84;101642.80;1681264;84;21762;-83
2021/10/02 06:56:48;;;;;;;33.53;21.95;;;;;;;9.86;77.08;101634.28;1681357;85;21575;-79
2021/10/02 06:59:15;;;;;;;31.15;23.22;;;;;;;9.95;77.01;101635.48;1647974;86;21074;-81
2021/10/02 07:01:42;;;;;;;35.05;23.77;;;;;;;10.03;76.93;101634.09;1680800;84;21109;-81
2021/10/02 07:04:09;;;;;;;30.72;21.75;;;;;;;10.09;76.84;101635.22;1681260;85;21706;-82
2021/10/02 07:06:36;;;;;;;33.67;22.32;;;;;;;10.17;76.91;101639.91;1648036;86;21777;-81
2021/10/02 07:09:05;;;;;;;28.35;20.80;;;;;;;10.24;76.70;101631.00;1652339;85;21129;-81
2021/10/02 07:11:31;;;;;;;34.13;25.43;;;;;;;10.24;76.58;101634.06;1681286;85;21822;-81
2021/10/02 07:13:58;;;;;;;27.95;24.45;;;;;;;10.22;76.46;101629.16;1648173;86;21055;-82
2021/10/02 07:16:25;;;;;;;31.90;21.90;;;;;;;10.22;76.46;101623.90;1681347;84;21098;-80
2021/10/02 07:18:51;;;;;;;27.17;22.40;;;;;;;10.21;76.33;101628.67;1681178;85;21788;-82
2021/10/02 07:21:18;;;;;;;27.75;22.93;;;;;;;10.19;76.39;101633.89;1648160;87;21039;-81
2021/10/02 07:23:45;;;;;;;26.90;21.62;;;;;;;10.18;76.36;101628.56;1681127;84;21078;-81
2021/10/02 07:26:11;;;;;;;25.90;22.07;;;;;;;10.19;76.48;101628.63;1680941;84;21086;-81
2021/10/02 07:28:38;;;;;;;30.12;23.73;;;;;;;10.22;76.53;101618.64;1648141;86;21560;-81
2021/10/02 07:31:05;;;;;;;26.48;21.97;;;;;;;10.29;76.52;101621.57;1681191;85;21972;-81
2021/10/02 07:33:31;;;;;;;29.52;22.77;;;;;;;10.31;76.40;101614.67;1681098;85;21109;-81
2021/10/02 07:35:58;;;;;;;31.40;23.95;;;;;;;10.34;76.48;101617.83;1647951;86;21055;-82
2021/10/02 07:38:25;;;;;;;29.37;22.93;;;;;;;10.39;76.56;101614.08;1653613;85;21039;-83
2021/10/02 07:40:52;;;;;;;34.27;23.83;;;;;;;10.45;76.68;101621.78;1681166;85;21078;-83
2021/10/02 07:43:24;;;;;;;30.77;22.95;;;;;;;10.55;76.77;101623.06;1645319;85;21070;-82
2021/10/02 07:45:49;;;;;;;31.05;24.07;;;;;;;10.65;76.80;101616.41;1628701;87;21105;-83
2021/10/02 07:48:16;;;;;;;34.38;24.45;;;;;;;10.72;76.64;101616.22;1628663;86;21090;-81
2021/10/02 07:50:43;;;;;;;34.18;25.82;;;;;;;10.76;76.57;101607.62;1628300;85;21154;-84
2021/10/02 07:53:12;;;;;;;35.60;25.02;;;;;;;10.77;76.54;101606.33;1662270;84;21101;-84
2021/10/02 07:55:48;;;;;;;32.98;24.98;;;;;;;10.81;76.60;101601.69;1626661;86;22972;-87
2021/10/02 07:58:14;;;;;;;31.97;25.35;;;;;;;10.84;76.57;101596.94;1525826;92;21149;-82
2021/10/02 08:00:41;;;;;;;34.80;25.15;;;;;;;10.89;76.62;101587.05;1526232;93;21145;-85
2021/10/02 08:03:08;;;;;;;33.05;24.77;;;;;;;10.96;76.56;101589.91;1526880;93;21716;-86
2021/10/02 08:05:35;;;;;;;35.08;25.37;;;;;;;10.99;76.53;101591.34;1527019;92;21101;-85
2021/10/02 08:08:16;;;;;;;35.80;26.10;;;;;;;11.05;76.63;101588.93;1550055;92;22393;-86
2021/10/02 08:10:39;;;;;;;33.18;24.57;;;;;;;11.14;76.66;101585.31;1525721;93;21121;-79
2021/10/02 08:13:06;;;;;;;32.40;26.23;;;;;;;11.24;76.57;101575.59;1526503;92;21163;-83
2021/10/02 08:15:35;;;;;;;33.67;25.82;;;;;;;11.32;76.60;101576.26;1526451;93;21248;-81
2021/10/02 08:18:05;;;;;;;31.73;26.37;;;;;;;11.39;76.60;101572.60;1526536;93;21646;-81
2021/10/02 08:20:31;;;;;;;31.35;24.30;;;;;;;11.47;76.53;101572.44;1526419;92;21788;-81
2021/10/02 08:22:59;;;;;;;36.80;27.07;;;;;;;11.53;76.32;101566.47;1526424;93;21152;-80
2021/10/02 08:25:26;;;;;;;30.32;24.05;;;;;;;11.57;76.53;101567.48;1526492;92;21317;-79
2021/10/02 08:27:53;;;;;;;35.63;25.62;;;;;;;11.65;76.47;101560.70;1526361;92;21622;-81
2021/10/02 08:30:20;;;;;;;32.90;26.40;;;;;;;11.67;76.34;101564.29;1526624;92;21305;-80
2021/10/02 08:32:48;;;;;;;32.35;25.77;;;;;;;11.67;76.34;101564.29;1526572;92;21431;-86
2021/10/02 08:35:15;;;;;;;48.60;41.60;;;;;;;11.73;76.38;101561.88;1569765;86;21599;-81
2021/10/02 08:37:44;;;;;;;35.33;28.47;;;;;;;11.79;76.46;101562.08;1627006;86;21592;-84
2021/10/02 08:40:14;;;;;;;32.95;27.30;;;;;;;11.84;76.42;101564.45;1661958;86;21102;-81
2021/10/02 08:42:43;;;;;;;35.48;28.05;;;;;;;11.92;76.48;101563.81;1627120;86;21164;-79
2021/10/02 08:45:11;;;;;;;37.75;29.25;;;;;;;11.99;76.39;101557.89;1656857;86;22005;-79
2021/10/02 08:47:41;;;;;;;37.93;30.35;;;;;;;12.01;76.26;101547.88;1627593;87;21022;-81
2021/10/02 08:50:09;;;;;;;37.28;29.55;;;;;;;12.06;76.33;101548.01;1657553;86;21042;-79
2021/10/02 08:52:36;;;;;;;36.10;29.40;;;;;;;12.16;76.28;101543.52;1657545;85;21109;-81
2021/10/02 08:55:06;;;;;;;42.10;29.27;;;;;;;12.19;76.03;101539.63;1627872;86;21027;-89
2021/10/02 08:57:36;;;;;;;37.65;28.10;;;;;;;12.22;76.09;101538.41;1657723;86;21767;-78
2021/10/02 09:00:15;;;;;;;38.17;26.85;;;;;;;12.30;76.10;101534.69;1627602;87;21051;-76
2021/10/02 09:02:41;;;;;;;36.53;26.75;;;;;;;12.38;76.05;101532.27;1657481;86;21607;-79
2021/10/02 09:05:09;;;;;;;31.57;25.97;;;;;;;12.45;75.88;101532.50;1657363;86;21087;-79
2021/10/02 09:07:36;;;;;;;34.00;25.15;;;;;;;12.50;75.84;101527.77;1627684;87;21105;-79
2021/10/02 09:10:09;;;;;;;30.25;24.75;;;;;;;12.61;75.93;101526.34;1657490;86;22394;-81
2021/10/02 09:12:38;;;;;;;33.48;25.40;;;;;;;12.69;75.76;101531.45;1628092;87;21090;-84
2021/10/02 09:15:06;;;;;;;30.45;25.75;;;;;;;12.79;75.75;101528.63;1628807;86;21626;-84
2021/10/02 09:17:33;;;;;;;42.58;32.95;;;;;;;12.88;75.57;101526.25;1635698;87;21190;-85
2021/10/02 09:20:00;;;;;;;32.60;27.05;;;;;;;12.98;75.42;101521.67;1635544;87;21097;-84
2021/10/02 09:22:27;;;;;;;31.12;26.33;;;;;;;13.02;75.20;101523.98;1635879;87;22405;-86
2021/10/02 09:24:59;;;;;;;29.80;26.23;;;;;;;13.08;75.03;101523.25;1635770;87;21113;-87
2021/10/02 09:27:29;;;;;;;32.23;25.55;;;;;;;13.10;74.87;101526.83;1635532;86;21175;-86
2021/10/02 09:30:13;;;;;;;30.50;26.48;;;;;;;13.11;74.90;101530.84;1635548;87;21115;-84
2021/10/02 09:32:45;;;;;;;30.32;23.77;;;;;;;13.16;74.79;101534.95;1608684;88;21658;-86
2021/10/02 09:35:16;;;;;;;32.65;27.07;;;;;;;13.18;74.67;101530.59;1608827;89;21873;-81
2021/10/02 09:37:49;;;;;;;30.57;25.65;;;;;;;13.21;74.58;101527.61;1607262;87;21625;-86
2021/10/02 09:40:24;;;;;;;29.23;24.45;;;;;;;13.25;74.50;101527.27;1603944;87;21696;-85
2021/10/02 09:42:54;;;;;;;27.62;24.02;;;;;;;13.31;74.48;101531.85;1604854;87;21648;-84
2021/10/02 09:45:27;;;;;;;29.67;25.10;;;;;;;13.35;74.35;101525.34;1601139;89;21120;-80
2021/10/02 09:47:59;;;;;;;26.55;22.70;;;;;;;13.41;74.29;101524.61;1581976;90;21985;-82
2021/10/02 09:50:35;;;;;;;26.40;23.18;;;;;;;13.47;74.15;101519.91;1582991;90;21147;-84
2021/10/02 09:53:13;;;;;;;33.08;25.90;;;;;;;13.51;74.15;101521.33;1586070;89;21650;-83
2021/10/02 09:55:44;;;;;;;30.05;24.45;;;;;;;13.57;73.91;101528.13;1583908;90;21148;-89
2021/10/02 09:58:19;;;;;;;26.42;22.30;;;;;;;13.58;73.78;101521.07;1583393;89;21253;-84
2021/10/02 10:00:48;;;;;;;30.27;24.32;;;;;;;13.61;73.73;101513.22;1583696;89;21867;-77
2021/10/02 10:03:17;;;;;;;27.95;23.55;;;;;;;13.69;73.72;101518.70;1583235;90;21284;-77
2021/10/02 10:05:47;;;;;;;29.75;25.80;;;;;;;13.72;73.55;101513.05;1583283;89;21117;-79
2021/10/02 10:08:22;;;;;;;32.85;27.55;;;;;;;13.73;73.45;101513.50;1583303;90;21172;-79
2021/10/02 10:10:52;;;;;;;30.55;26.33;;;;;;;13.73;73.34;101512.18;1583453;90;21135;-82
2021/10/02 10:13:22;;;;;;;36.65;27.90;;;;;;;13.76;73.20;101509.62;1583746;89;21885;-82
2021/10/02 10:15:50;;;;;;;28.87;25.02;;;;;;;13.83;73.35;101507.11;1583440;90;21034;-81
2021/10/02 10:18:29;;;;;;;30.23;24.32;;;;;;;13.95;73.27;101500.36;1604392;86;21606;-81
2021/10/02 10:20:59;;;;;;;32.30;25.32;;;;;;;14.09;73.12;101502.42;1607680;87;21198;-81
2021/10/02 10:23:32;;;;;;;29.87;24.82;;;;;;;14.12;72.86;101508.69;1607538;88;21132;-81
2021/10/02 10:26:04;;;;;;;33.98;27.70;;;;;;;14.16;72.79;101508.33;1606984;87;21121;-81
2021/10/02 10:28:34;;;;;;;36.00;30.08;;;;;;;14.19;72.69;101497.38;1635444;86;21058;-81
2021/10/02 10:31:20;;;;;;;35.15;29.20;;;;;;;14.17;72.40;101489.84;1661103;85;21083;-81
2021/10/02 10:33:52;;;;;;;35.80;30.25;;;;;;;14.16;72.26;101497.73;1660479;85;21157;-81
2021/10/02 10:36:20;;;;;;;44.60;30.68;;;;;;;14.12;72.22;101486.62;1661569;86;21109;-80
2021/10/02 10:38:48;;;;;;;32.65;28.85;;;;;;;14.11;72.18;101489.67;1661198;85;21920;-81
2021/10/02 10:41:17;;;;;;;35.70;27.17;;;;;;;14.13;72.17;101489.72;1661002;84;21086;-80
2021/10/02 10:43:44;;;;;;;35.70;27.27;;;;;;;14.15;71.91;101482.30;1666046;84;21610;-80
2021/10/02 10:46:14;;;;;;;33.35;28.45;;;;;;;14.16;71.83;101480.09;1685121;84;21252;-81
2021/10/02 10:48:42;;;;;;;36.25;30.43;;;;;;;14.18;71.75;101478.36;1685318;83;21101;-80
2021/10/02 10:51:17;;;;;;;32.80;26.80;;;;;;;14.26;71.76;101486.47;1685387;84;21840;-80
2021/10/02 10:53:49;;;;;;;35.80;28.87;;;;;;;14.34;71.68;101489.28;1684749;84;21089;-81
2021/10/02 10:56:18;;;;;;;35.28;28.80;;;;;;;14.42;71.49;101486.83;1685402;83;21101;-81
2021/10/02 10:58:46;;;;;;;31.73;27.70;;;;;;;14.39;71.22;101484.55;1685454;83;21476;-81
2021/10/02 11:01:17;;;;;;;33.90;27.98;;;;;;;14.39;71.27;101484.55;1633507;85;21206;-81
2021/10/02 11:03:46;;;;;;;34.38;30.37;;;;;;;14.43;71.07;101485.50;1656502;85;21857;-81
2021/10/02 11:06:18;;;;;;;38.85;30.27;;;;;;;14.41;70.84;101479.72;1685289;84;21094;-81
2021/10/02 11:09:05;;;;;;;33.90;28.65;;;;;;;14.36;70.86;101475.23;1685546;83;21687;-81
2021/10/02 11:11:52;;;;;;;36.53;29.72;;;;;;;14.40;70.93;101473.55;1685523;84;21148;-80
2021/10/02 11:14:27;;;;;;;32.00;27.85;;;;;;;14.56;71.14;101469.44;1685148;84;21567;-81
2021/10/02 11:17:01;;;;;;;;;;;;;;;14.77;70.98;101472.97;1681151;84;21791;-81
2021/10/02 11:19:37;;;;;;;35.90;28.05;;;;;;;14.84;70.52;101462.95;1685683;84;20194;-81
2021/10/02 11:22:34;;;;;;;33.83;27.48;;;;;;;14.85;70.32;101454.16;1685680;84;21074;-81
2021/10/02 11:24:58;;;;;;;31.60;25.82;;;;;;;14.84;70.14;101457.66;1685086;85;21401;-80
2021/10/02 11:27:25;;;;;;;36.05;28.52;;;;;;;14.81;70.00;101454.97;1658463;85;21101;-80
2021/10/02 11:29:52;;;;;;;32.70;27.87;;;;;;;14.77;69.93;101447.80;1685751;84;21809;-80
2021/10/02 11:32:26;;;;;;;32.98;27.17;;;;;;;14.72;69.81;101445.52;1657180;85;21086;-80
2021/10/02 11:35:21;;;;;;;36.00;28.45;;;;;;;14.68;69.79;101443.67;1685719;84;21126;-80
2021/10/02 11:37:59;;;;;;;35.25;28.23;;;;;;;14.68;69.88;101439.26;1685386;83;21488;-81
2021/10/02 11:40:44;;;;;;;28.95;25.80;;;;;;;14.73;69.82;101432.30;1685794;84;21133;-80
2021/10/02 11:43:22;;;;;;;30.55;25.45;;;;;;;14.78;69.82;101425.30;1685709;84;21730;-81
2021/10/02 11:45:59;;;;;;;28.73;24.18;;;;;;;14.95;69.72;101426.05;1667071;84;21070;-81
2021/10/02 11:48:39;;;;;;;26.97;24.02;;;;;;;15.08;69.58;101424.52;1666032;85;21300;-80
2021/10/02 11:51:20;;;;;;;28.32;24.43;;;;;;;15.18;69.35;101417.59;1666013;85;21617;-81
2021/10/02 11:53:54;;;;;;;29.57;25.57;;;;;;;15.28;69.18;101416.91;1665887;84;21094;-81
2021/10/02 11:56:26;;;;;;;31.40;25.40;;;;;;;15.34;69.07;101411.25;1654762;85;25252;-80
2021/10/02 11:58:55;;;;;;;29.15;24.25;;;;;;;15.40;68.86;101417.52;1665198;84;21646;-81
2021/10/02 12:01:26;;;;;;;28.87;24.45;;;;;;;15.46;68.82;101419.82;1666008;85;21090;-81
2021/10/02 12:04:08;;;;;;;30.25;25.48;;;;;;;15.50;68.57;101416.37;1665315;85;21105;-81
2021/10/02 12:06:41;;;;;;;30.15;25.62;;;;;;;15.53;68.45;101407.55;1665848;85;21109;-80
2021/10/02 12:09:16;;;;;;;31.07;26.02;;;;;;;15.61;68.47;101403.24;1666059;85;22421;-80
2021/10/02 12:11:48;;;;;;;29.65;26.10;;;;;;;15.62;68.05;101402.39;1666018;86;21082;-80
2021/10/02 12:14:21;;;;;;;27.82;24.50;;;;;;;15.51;67.82;101401.34;1665266;84;21168;-80
2021/10/02 12:16:57;;;;;;;27.73;24.10;;;;;;;15.44;67.80;101408.30;1666292;84;21078;-80
2021/10/02 12:19:24;;;;;;;30.55;26.87;;;;;;;15.47;67.80;101415.43;1666154;84;21140;-80
2021/10/02 12:21:59;;;;;;;32.15;26.80;;;;;;;15.51;67.81;101414.16;1666105;85;21702;-80